createdAt,value
2022-12-04T00:01:12.148Z,9.45
2022-12-04T00:03:39.137Z,6.93
2022-12-04T00:06:17.395Z,8.90
2022-12-04T00:08:45.201Z,6.53
2022-12-04T00:11:13.624Z,6.53
2022-12-04T00:13:40.843Z,6.15
2022-12-04T00:16:09.711Z,7.03
2022-12-04T00:18:36.653Z,8.15
2022-12-04T00:21:08.883Z,6.55
2022-12-04T00:23:36.526Z,6.05
2022-12-04T00:26:05.390Z,7.85
2022-12-04T00:28:32.343Z,8.02
2022-12-04T00:30:58.832Z,6.03
2022-12-04T00:33:25.774Z,7.57
2022-12-04T00:35:59.815Z,6.38
2022-12-04T00:38:26.982Z,6.85
2022-12-04T00:40:54.106Z,7.23
2022-12-04T00:43:20.990Z,6.75
2022-12-04T00:45:47.821Z,7.25
2022-12-04T00:48:14.285Z,6.78
2022-12-04T00:50:41.360Z,6.68
2022-12-04T00:53:07.964Z,8.23
2022-12-04T00:55:38.194Z,6.95
2022-12-04T00:58:04.878Z,6.25
2022-12-04T01:00:31.601Z,5.63
2022-12-04T01:02:58.327Z,6.13
2022-12-04T01:05:25.002Z,7.15
2022-12-04T01:07:51.665Z,7.32
2022-12-04T01:10:18.335Z,6.18
2022-12-04T01:12:44.943Z,5.35
2022-12-04T01:15:11.466Z,6.35
2022-12-04T01:17:37.960Z,7.00
2022-12-04T01:20:05.055Z,6.68
2022-12-04T01:22:31.658Z,6.75
2022-12-04T01:24:58.370Z,6.00
2022-12-04T01:27:24.882Z,6.30
2022-12-04T01:29:51.440Z,5.72
2022-12-04T01:32:17.933Z,6.55
2022-12-04T01:34:44.562Z,7.15
2022-12-04T01:37:11.092Z,6.38
2022-12-04T01:39:37.691Z,5.43
2022-12-04T01:42:05.240Z,5.32
2022-12-04T01:44:32.553Z,6.90
2022-12-04T01:47:01.136Z,7.13
2022-12-04T01:49:42.990Z,7.18
2022-12-04T01:52:21.545Z,7.70
2022-12-04T01:54:52.128Z,7.50
2022-12-04T01:57:21.559Z,6.45
2022-12-04T01:59:53.848Z,7.07
2022-12-04T02:02:28.461Z,5.68
2022-12-04T02:04:56.281Z,6.15
2022-12-04T02:07:22.995Z,8.07
2022-12-04T02:09:49.518Z,6.75
2022-12-04T02:12:21.198Z,7.55
2022-12-04T02:15:42.326Z,6.93
2022-12-04T02:18:29.551Z,6.65
2022-12-04T02:21:12.024Z,7.30
2022-12-04T02:23:57.446Z,6.60
2022-12-04T02:27:00.952Z,6.50
2022-12-04T02:29:37.162Z,6.28
2022-12-04T02:32:19.146Z,6.75
2022-12-04T02:35:06.862Z,8.57
2022-12-04T02:37:40.677Z,6.70
2022-12-04T02:40:09.888Z,7.57
2022-12-04T02:42:52.116Z,6.97
2022-12-04T02:45:27.296Z,7.00
2022-12-04T02:47:55.204Z,6.97
2022-12-04T02:50:24.222Z,6.75
2022-12-04T02:53:22.143Z,7.35
2022-12-04T02:55:55.125Z,6.57
2022-12-04T02:58:29.240Z,6.80
2022-12-04T03:00:59.907Z,7.15
2022-12-04T03:03:30.181Z,8.55
2022-12-04T03:06:07.672Z,7.13
2022-12-04T03:08:39.389Z,5.80
2022-12-04T03:11:06.281Z,8.07
2022-12-04T03:13:46.190Z,6.50
2022-12-04T03:16:16.206Z,7.95
2022-12-04T03:18:49.711Z,7.93
2022-12-04T03:21:23.110Z,8.27
2022-12-04T03:23:59.910Z,7.55
2022-12-04T03:26:37.191Z,8.27
2022-12-04T03:29:23.534Z,7.13
2022-12-04T03:31:59.157Z,7.90
2022-12-04T03:34:33.158Z,8.40
2022-12-04T03:37:06.369Z,6.93
2022-12-04T03:39:57.074Z,7.57
2022-12-04T03:42:43.831Z,6.40
2022-12-04T03:45:28.205Z,7.38
2022-12-04T03:48:22.725Z,6.80
2022-12-04T03:50:59.900Z,6.70
2022-12-04T03:53:36.265Z,5.82
2022-12-04T03:56:16.755Z,6.80
2022-12-04T03:58:48.783Z,8.13
2022-12-04T04:01:20.166Z,8.30
2022-12-04T04:03:51.078Z,6.30
2022-12-04T04:06:23.976Z,7.05
2022-12-04T04:08:53.817Z,6.55
2022-12-04T04:11:27.687Z,6.78
2022-12-04T04:14:01.158Z,7.22
2022-12-04T04:16:31.607Z,7.85
2022-12-04T04:19:00.007Z,7.03
2022-12-04T04:21:32.054Z,7.07
2022-12-04T04:23:59.411Z,6.97
2022-12-04T04:26:27.920Z,6.43
2022-12-04T04:28:54.697Z,6.35
2022-12-04T04:31:36.867Z,6.13
2022-12-04T04:34:21.659Z,6.53
2022-12-04T04:37:12.909Z,5.25
2022-12-04T04:39:51.698Z,5.82
2022-12-04T04:42:26.021Z,6.20
2022-12-04T04:45:07.637Z,6.20
2022-12-04T04:47:58.599Z,5.78
2022-12-04T04:50:25.569Z,5.38
2022-12-04T04:52:59.686Z,7.80
2022-12-04T04:55:26.928Z,5.30
2022-12-04T04:57:53.469Z,7.33
2022-12-04T05:00:22.734Z,4.80
2022-12-04T05:02:49.226Z,7.03
2022-12-04T05:05:16.862Z,7.05
2022-12-04T05:07:43.642Z,7.38
2022-12-04T05:10:10.449Z,6.45
2022-12-04T05:12:37.018Z,5.70
2022-12-04T05:15:03.831Z,6.90
2022-12-04T05:17:30.402Z,6.53
2022-12-04T05:19:57.580Z,6.75
2022-12-04T05:22:30.863Z,5.72
2022-12-04T05:24:57.845Z,7.40
2022-12-04T05:27:25.402Z,6.95
2022-12-04T05:29:53.764Z,6.85
2022-12-04T05:32:21.560Z,8.20
2022-12-04T05:34:52.061Z,8.00
2022-12-04T05:37:19.903Z,6.25
2022-12-04T05:39:46.545Z,7.00
2022-12-04T05:42:13.553Z,6.22
2022-12-04T05:44:40.252Z,7.20
2022-12-04T05:47:07.702Z,5.68
2022-12-04T05:49:34.825Z,6.25
2022-12-04T05:52:02.692Z,5.68
2022-12-04T05:54:29.163Z,5.85
2022-12-04T05:56:55.769Z,5.82
2022-12-04T05:59:22.646Z,5.28
2022-12-04T06:01:49.138Z,7.05
2022-12-04T06:04:15.740Z,5.95
2022-12-04T06:06:42.324Z,6.32
2022-12-04T06:09:08.964Z,6.65
2022-12-04T06:11:38.384Z,6.47
2022-12-04T06:14:07.882Z,6.70
2022-12-04T06:16:37.276Z,7.35
2022-12-04T06:19:09.759Z,7.78
2022-12-04T06:21:39.289Z,6.25
2022-12-04T06:24:07.544Z,6.25
2022-12-04T06:26:34.557Z,6.70
2022-12-04T06:29:01.142Z,5.18
2022-12-04T06:31:29.212Z,7.15
2022-12-04T06:36:23.799Z,9.07
2022-12-04T06:38:51.662Z,6.73
2022-12-04T06:41:20.749Z,6.80
2022-12-04T06:43:47.386Z,6.70
2022-12-04T06:46:16.843Z,6.47
2022-12-04T06:48:43.477Z,7.35
2022-12-04T06:51:16.158Z,8.50
2022-12-04T06:53:43.119Z,7.10
2022-12-04T06:56:12.370Z,7.40
2022-12-04T06:58:39.054Z,6.55
2022-12-04T07:01:11.713Z,6.72
2022-12-04T07:03:39.604Z,9.60
2022-12-04T07:06:26.676Z,6.97
2022-12-04T07:08:55.749Z,8.43
2022-12-04T07:11:23.119Z,8.68
2022-12-04T07:13:50.525Z,7.13
2022-12-04T07:16:20.456Z,7.07
2022-12-04T07:18:47.763Z,7.53
2022-12-04T07:21:18.729Z,6.63
2022-12-04T07:23:49.627Z,7.82
2022-12-04T07:26:16.206Z,6.47
2022-12-04T07:28:42.974Z,6.55
2022-12-04T07:31:12.625Z,5.80
2022-12-04T07:33:39.645Z,6.47
2022-12-04T07:36:08.863Z,6.90
2022-12-04T07:38:35.565Z,5.70
2022-12-04T07:41:04.349Z,5.03
2022-12-04T07:43:31.457Z,5.68
2022-12-04T07:45:59.096Z,5.53
2022-12-04T07:48:31.735Z,5.45
2022-12-04T07:51:11.646Z,6.38
2022-12-04T07:53:38.804Z,7.00
2022-12-04T07:56:06.351Z,6.97
2022-12-04T07:58:34.177Z,8.00
2022-12-04T08:01:17.554Z,7.55
2022-12-04T08:03:48.428Z,6.72
2022-12-04T08:06:17.553Z,7.60
2022-12-04T08:08:44.239Z,7.20
2022-12-04T08:11:14.876Z,7.10
2022-12-04T08:13:41.442Z,4.90
2022-12-04T08:16:09.892Z,5.35
2022-12-04T08:18:36.752Z,6.03
2022-12-04T08:21:10.843Z,6.00
2022-12-04T08:23:38.595Z,6.07
2022-12-04T08:26:06.268Z,5.53
2022-12-04T08:28:33.829Z,5.97
2022-12-04T08:31:05.697Z,6.03
2022-12-04T08:33:33.359Z,6.47
2022-12-04T08:36:00.407Z,5.78
2022-12-04T08:38:26.955Z,6.20
2022-12-04T08:40:53.633Z,6.75
2022-12-04T08:43:20.080Z,7.47
2022-12-04T08:46:04.819Z,7.88
2022-12-04T08:48:31.712Z,6.47
2022-12-04T08:50:59.141Z,6.78
2022-12-04T08:53:26.320Z,5.50
2022-12-04T08:55:53.151Z,6.18
2022-12-04T08:58:19.660Z,5.25
2022-12-04T09:00:46.198Z,5.07
2022-12-04T09:03:14.463Z,5.63
2022-12-04T09:05:40.975Z,6.53
2022-12-04T09:08:08.915Z,6.13
2022-12-04T09:10:36.890Z,6.03
2022-12-04T09:13:04.349Z,6.50
2022-12-04T09:15:32.196Z,4.75
2022-12-04T09:17:58.803Z,6.20
2022-12-04T09:20:25.548Z,7.53
2022-12-04T09:23:03.834Z,6.30
2022-12-04T09:25:31.739Z,6.75
2022-12-04T09:27:58.412Z,6.70
2022-12-04T09:30:24.991Z,5.65
2022-12-04T09:32:51.456Z,6.68
2022-12-04T09:35:18.012Z,8.23
2022-12-04T09:37:44.472Z,6.22
2022-12-04T09:40:38.138Z,5.68
2022-12-04T09:43:17.430Z,5.53
2022-12-04T09:45:51.296Z,5.95
2022-12-04T09:48:20.974Z,5.70
2022-12-04T09:50:49.535Z,5.60
2022-12-04T09:53:20.578Z,5.10
2022-12-04T09:56:06.640Z,5.57
2022-12-04T09:58:46.667Z,5.00
2022-12-04T10:01:27.138Z,4.65
2022-12-04T10:03:57.718Z,4.72
2022-12-04T10:06:32.337Z,5.40
2022-12-04T10:09:09.759Z,5.95
2022-12-04T10:11:48.766Z,5.25
2022-12-04T10:14:44.507Z,4.80
2022-12-04T10:17:22.104Z,4.45
2022-12-04T10:20:11.662Z,6.00
2022-12-04T10:22:50.003Z,5.07
2022-12-04T10:25:24.058Z,5.47
2022-12-04T10:28:02.329Z,4.88
2022-12-04T10:30:33.149Z,6.35
2022-12-04T10:33:14.054Z,5.20
2022-12-04T10:35:43.624Z,4.70
2022-12-04T10:38:21.059Z,5.63
2022-12-04T10:40:53.901Z,4.75
2022-12-04T10:43:34.825Z,4.88
2022-12-04T10:46:01.471Z,4.30
2022-12-04T10:48:38.274Z,4.20
2022-12-04T10:51:04.882Z,6.65
2022-12-04T10:53:35.725Z,4.70
2022-12-04T10:56:13.746Z,4.88
2022-12-04T10:58:40.527Z,5.60
2022-12-04T11:01:11.913Z,5.05
2022-12-04T11:03:39.129Z,4.60
2022-12-04T11:06:08.596Z,4.47
2022-12-04T11:08:43.943Z,4.40
2022-12-04T11:11:16.583Z,6.10
2022-12-04T11:13:43.078Z,5.32
2022-12-04T11:16:32.048Z,5.50
2022-12-04T11:18:58.754Z,6.40
2022-12-04T11:21:29.442Z,6.55
2022-12-04T11:23:56.522Z,5.63
2022-12-04T11:26:50.032Z,5.45
2022-12-04T11:29:18.893Z,5.30
2022-12-04T11:31:53.900Z,3.83
2022-12-04T11:34:25.159Z,5.28
2022-12-04T11:36:56.887Z,5.03
2022-12-04T11:39:32.484Z,5.07
2022-12-04T11:42:05.438Z,5.28
2022-12-04T11:44:35.387Z,5.90
2022-12-04T11:47:04.054Z,4.70
2022-12-04T11:49:32.274Z,5.18
2022-12-04T11:55:02.367Z,4.05
2022-12-04T11:57:48.137Z,4.10
2022-12-04T12:00:18.270Z,4.72
2022-12-04T12:03:07.890Z,4.13
2022-12-04T12:05:52.849Z,4.60
2022-12-04T12:08:47.327Z,5.18
2022-12-04T12:11:28.690Z,3.92
2022-12-04T12:14:15.846Z,4.40
2022-12-04T12:17:10.395Z,5.50
2022-12-04T12:19:42.731Z,6.28
2022-12-04T12:22:24.339Z,5.20
2022-12-04T12:25:18.968Z,6.40
2022-12-04T12:28:04.554Z,3.88
2022-12-04T12:31:05.543Z,4.07
2022-12-04T12:34:04.722Z,4.38
2022-12-04T12:36:43.584Z,4.97
2022-12-04T12:39:22.561Z,4.78
2022-12-04T12:41:53.026Z,5.47
2022-12-04T12:44:22.530Z,11.18
2022-12-04T12:47:07.398Z,7.07
2022-12-04T12:49:45.804Z,5.40
2022-12-04T12:52:27.454Z,5.28
2022-12-04T12:55:14.777Z,5.15
2022-12-04T12:57:45.921Z,6.30
2022-12-04T13:00:20.329Z,4.45
2022-12-04T13:02:58.397Z,6.53
2022-12-04T13:05:33.541Z,5.63
2022-12-04T13:08:16.887Z,5.28
2022-12-04T13:10:46.618Z,6.10
2022-12-04T13:13:32.776Z,5.97
2022-12-04T13:16:06.548Z,5.82
2022-12-04T13:18:49.914Z,5.70
2022-12-04T13:21:30.824Z,7.03
2022-12-04T13:24:17.667Z,6.47
2022-12-04T13:27:03.413Z,5.60
2022-12-04T13:29:40.549Z,6.28
2022-12-04T13:32:40.842Z,7.07
2022-12-04T13:35:23.096Z,7.30
2022-12-04T13:38:20.647Z,6.97
2022-12-04T13:40:54.150Z,7.03
2022-12-04T13:43:25.962Z,6.13
2022-12-04T13:45:55.777Z,6.65
2022-12-04T13:48:39.714Z,7.00
2022-12-04T13:51:24.376Z,5.97
2022-12-04T13:54:21.044Z,6.47
2022-12-04T13:56:51.233Z,6.77
2022-12-04T13:59:29.601Z,6.72
2022-12-04T14:02:03.517Z,5.95
2022-12-04T14:04:46.797Z,5.15
2022-12-04T14:07:36.353Z,6.43
2022-12-04T14:10:15.115Z,8.05
2022-12-04T14:12:44.099Z,6.93
2022-12-04T14:15:23.363Z,5.43
2022-12-04T14:18:02.588Z,5.53
2022-12-04T14:20:34.449Z,6.55
2022-12-04T14:23:16.265Z,5.78
2022-12-04T14:25:42.750Z,7.22
2022-12-04T14:28:42.038Z,7.55
2022-12-04T14:31:08.961Z,9.07
2022-12-04T14:33:45.120Z,8.63
2022-12-04T14:36:30.351Z,7.53
2022-12-04T14:39:05.324Z,7.20
2022-12-04T14:41:32.322Z,6.40
2022-12-04T14:43:59.266Z,7.95
2022-12-04T14:46:44.186Z,6.60
2022-12-04T14:49:29.143Z,7.10
2022-12-04T14:52:22.949Z,8.07
2022-12-04T14:54:54.620Z,7.55
2022-12-04T14:57:28.523Z,8.18
2022-12-04T14:59:55.642Z,9.32
2022-12-04T15:02:33.191Z,7.63
2022-12-04T15:05:00.513Z,10.20
2022-12-04T15:07:30.943Z,9.02
2022-12-04T15:10:02.146Z,9.38
2022-12-04T15:12:28.639Z,8.82
2022-12-04T15:15:02.234Z,7.93
2022-12-04T15:17:28.729Z,8.27
2022-12-04T15:19:55.186Z,8.65
2022-12-04T15:22:28.917Z,8.98
2022-12-04T15:24:56.264Z,9.15
2022-12-04T15:27:30.547Z,9.55
2022-12-04T15:29:59.986Z,8.63
2022-12-04T15:32:27.040Z,7.50
2022-12-04T15:35:05.918Z,8.68
2022-12-04T15:37:33.898Z,7.97
2022-12-04T15:40:05.040Z,8.48
2022-12-04T15:42:31.968Z,8.45
2022-12-04T15:45:04.183Z,8.02
2022-12-04T15:47:52.117Z,8.80
2022-12-04T15:52:53.938Z,8.85
2022-12-04T15:55:22.914Z,9.02
2022-12-04T15:57:59.343Z,9.35
2022-12-04T16:00:32.507Z,11.15
2022-12-04T16:03:00.465Z,9.43
2022-12-04T16:05:33.062Z,10.00
2022-12-04T16:08:02.677Z,12.93
2022-12-04T16:10:32.927Z,9.98
2022-12-04T16:13:02.060Z,11.30
2022-12-04T16:15:39.663Z,10.10
2022-12-04T16:18:07.770Z,9.73
2022-12-04T16:20:36.123Z,10.20
2022-12-04T16:23:03.461Z,11.07
2022-12-04T16:25:30.230Z,10.25
2022-12-04T16:27:56.959Z,13.60
2022-12-04T16:30:23.444Z,12.43
2022-12-04T16:32:49.974Z,12.20
2022-12-04T16:35:17.213Z,11.45
2022-12-04T16:37:43.883Z,11.87
2022-12-04T16:40:11.941Z,12.23
2022-12-04T16:42:39.338Z,11.23
2022-12-04T16:45:31.360Z,12.00
2022-12-04T16:47:57.889Z,11.48
2022-12-04T16:50:25.844Z,10.55
2022-12-04T16:55:37.097Z,8.65
2022-12-04T16:58:04.914Z,8.02
2022-12-04T17:00:31.883Z,11.65
2022-12-04T17:02:59.308Z,10.27
2022-12-04T17:05:30.276Z,11.60
2022-12-04T17:07:56.766Z,9.80
2022-12-04T17:10:24.403Z,9.00
2022-12-04T17:12:54.466Z,9.60
2022-12-04T17:15:21.317Z,9.77
2022-12-04T17:17:47.834Z,9.75
2022-12-04T17:20:17.158Z,10.10
2022-12-04T17:22:43.681Z,9.32
2022-12-04T17:25:10.632Z,8.68
2022-12-04T17:27:37.613Z,9.20
2022-12-04T17:30:06.305Z,8.82
2022-12-04T17:32:33.857Z,10.40
2022-12-04T17:35:01.306Z,8.98
2022-12-04T17:37:28.037Z,8.25
2022-12-04T17:39:54.662Z,7.90
2022-12-04T17:42:21.296Z,7.65
2022-12-04T17:44:47.810Z,8.25
2022-12-04T17:47:14.590Z,9.30
2022-12-04T17:49:41.194Z,8.50
2022-12-04T17:52:07.757Z,8.43
2022-12-04T17:54:34.728Z,7.80
2022-12-04T17:57:01.534Z,8.70
2022-12-04T17:59:28.452Z,9.57
2022-12-04T18:01:54.949Z,9.48
2022-12-04T18:04:21.631Z,8.50
2022-12-04T18:06:48.106Z,7.90
2022-12-04T18:09:16.255Z,8.40
2022-12-04T18:11:46.478Z,8.52
2022-12-04T18:14:20.858Z,8.68
2022-12-04T18:16:49.961Z,8.23
2022-12-04T18:19:16.485Z,7.10
2022-12-04T18:21:42.977Z,9.00
2022-12-04T18:24:09.776Z,7.93
2022-12-04T18:26:42.505Z,8.15
2022-12-04T18:29:12.396Z,8.75
2022-12-04T18:31:39.633Z,7.93
2022-12-04T18:34:07.482Z,8.52
2022-12-04T18:36:35.451Z,7.45
2022-12-04T18:41:30.928Z,6.32
2022-12-04T18:43:57.953Z,8.07
2022-12-04T18:46:25.699Z,8.55
2022-12-04T18:48:54.187Z,9.48
2022-12-04T18:51:22.673Z,6.85
2022-12-04T18:53:50.741Z,7.55
2022-12-04T18:56:17.747Z,9.38
2022-12-04T18:58:45.204Z,9.57
2022-12-04T19:01:16.115Z,7.00
2022-12-04T19:03:42.659Z,7.38
2022-12-04T19:06:09.464Z,7.57
2022-12-04T19:08:41.466Z,6.40
2022-12-04T19:11:15.080Z,6.30
2022-12-04T19:13:42.658Z,6.47
2022-12-04T19:16:13.677Z,6.32
2022-12-04T19:18:40.902Z,7.03
2022-12-04T19:21:08.232Z,5.88
2022-12-04T19:23:35.115Z,6.72
2022-12-04T19:26:02.140Z,6.68
2022-12-04T19:28:28.757Z,8.20
2022-12-04T19:30:55.624Z,7.72
2022-12-04T19:33:23.793Z,6.18
2022-12-04T19:36:01.210Z,6.97
2022-12-04T19:38:28.726Z,7.07
2022-12-04T19:41:06.706Z,8.23
2022-12-04T19:43:33.887Z,8.80
2022-12-04T19:46:00.946Z,7.68
2022-12-04T19:48:27.666Z,7.23
2022-12-04T19:50:54.282Z,7.07
2022-12-04T19:53:20.875Z,6.78
2022-12-04T19:55:47.530Z,5.78
2022-12-04T19:58:14.524Z,7.40
2022-12-04T20:00:41.413Z,7.18
2022-12-04T20:03:07.909Z,7.75
2022-12-04T20:05:37.522Z,6.70
2022-12-04T20:10:29.843Z,6.20
2022-12-04T20:12:56.351Z,6.65
2022-12-04T20:15:22.922Z,7.25
2022-12-04T20:17:50.433Z,7.82
2022-12-04T20:20:16.976Z,7.40
2022-12-04T20:22:43.426Z,6.15
2022-12-04T20:25:09.921Z,6.53
2022-12-04T20:27:36.397Z,7.20
2022-12-04T20:30:04.764Z,8.52
2022-12-04T20:32:33.035Z,8.43
2022-12-04T20:34:59.516Z,7.50
2022-12-04T20:37:26.037Z,7.72
2022-12-04T20:39:54.186Z,8.00
2022-12-04T20:42:20.810Z,9.10
2022-12-04T20:44:47.421Z,6.68
2022-12-04T20:47:13.903Z,7.43
2022-12-04T20:49:40.445Z,7.50
2022-12-04T20:52:06.967Z,7.88
2022-12-04T20:54:40.807Z,8.68
2022-12-04T20:57:07.976Z,8.73
2022-12-04T20:59:34.664Z,7.72
2022-12-04T21:02:01.417Z,6.55
2022-12-04T21:04:27.944Z,6.70
2022-12-04T21:06:54.670Z,7.13
2022-12-04T21:09:24.076Z,6.07
2022-12-04T21:11:53.654Z,7.05
2022-12-04T21:14:23.446Z,6.47
2022-12-04T21:16:50.674Z,7.88
2022-12-04T21:19:19.900Z,6.97
2022-12-04T21:21:46.710Z,7.78
2022-12-04T21:24:16.029Z,6.55
2022-12-04T21:26:42.730Z,6.72
2022-12-04T21:29:09.548Z,6.07
2022-12-04T21:31:37.071Z,6.18
2022-12-04T21:34:06.537Z,5.95
2022-12-04T21:36:33.492Z,6.53
2022-12-04T21:39:00.690Z,5.80
2022-12-04T21:41:27.381Z,6.67
2022-12-04T21:43:53.846Z,6.13
2022-12-04T21:46:20.515Z,5.68
2022-12-04T21:48:47.210Z,6.22
2022-12-04T21:51:33.044Z,5.95
2022-12-04T21:54:00.265Z,6.72
2022-12-04T21:56:26.960Z,6.75
2022-12-04T21:58:53.913Z,6.78
2022-12-04T22:01:22.690Z,6.43
2022-12-04T22:03:49.698Z,7.40
2022-12-04T22:06:16.426Z,6.45
2022-12-04T22:08:43.793Z,6.25
2022-12-04T22:11:12.216Z,6.20
2022-12-04T22:13:39.585Z,6.53
2022-12-04T22:16:10.396Z,5.78
2022-12-04T22:18:37.240Z,5.28
2022-12-04T22:21:09.718Z,5.80
2022-12-04T22:23:36.784Z,5.95
2022-12-04T22:26:08.239Z,6.55
2022-12-04T22:28:35.361Z,5.35
2022-12-04T22:31:12.809Z,6.45
2022-12-04T22:33:39.932Z,6.22
2022-12-04T22:36:13.150Z,7.45
2022-12-04T22:38:58.729Z,6.88
2022-12-04T22:41:27.625Z,6.88
2022-12-04T22:43:54.409Z,7.43
2022-12-04T22:46:21.036Z,6.50
2022-12-04T22:48:47.663Z,6.72
2022-12-04T22:51:17.531Z,7.82
2022-12-04T22:53:46.470Z,6.90
2022-12-04T22:56:18.982Z,6.25
2022-12-04T22:58:46.002Z,7.28
2022-12-04T23:01:20.993Z,7.55
2022-12-04T23:03:48.371Z,7.00
2022-12-04T23:06:16.209Z,7.30
2022-12-04T23:08:43.881Z,8.23
2022-12-04T23:11:20.721Z,6.82
2022-12-04T23:13:51.804Z,6.00
2022-12-04T23:16:20.558Z,5.28
2022-12-04T23:18:47.856Z,6.22
2022-12-04T23:21:15.759Z,6.30
2022-12-04T23:23:44.280Z,8.13
2022-12-04T23:26:17.158Z,5.80
2022-12-04T23:28:43.671Z,6.53
2022-12-04T23:31:11.076Z,6.47
2022-12-04T23:33:38.446Z,6.97
2022-12-04T23:36:06.701Z,6.60
2022-12-04T23:38:35.229Z,6.70
2022-12-04T23:41:13.152Z,6.63
2022-12-04T23:46:11.331Z,5.75
2022-12-04T23:48:42.670Z,5.13
2022-12-04T23:51:10.389Z,5.35
2022-12-04T23:53:37.198Z,5.40
2022-12-04T23:56:12.581Z,6.65
2022-12-04T23:58:40.167Z,5.03
